Burley Municipal Airport
KBYI : now visible

Airfield :











YOU CAN JOIN US ON...

 
LOGIN :

Register | Disclaimer

   EN    FR    IT 

 









Legend :    VFR   Marginal VFR   IFR   Intensive IFR   Very Intensive IFR
Visi :
Ceiling :
>= 8 km
>= 3000ft
5 to 8 km
1000 to 3000 ft
1500m to 5 km
500 to 1000 ft
800 to 1500m
200 to 500 ft
< 800m
< 200 ft
Symbols :   Thunderstorms  Fog  Heavy snow  Heavy precipitations  Wind > 20 kt






- Airport Elevation : 4150 ft


KBYI - Burley Municipal

CURRENT METAR :
  • 220453Z AUTO 26017G24KT 10SM OVC065 08/M03 A2992 RMK AO2 SLP117 T00831028

EXPIRED METARs :
  • 220353Z AUTO 26010KT 10SM FEW046 08/01 A2990 RMK AO2 SLP110 T00830011
  • 220253Z AUTO 25006KT 10SM SCT060 09/02 A2988 RMK AO2 SLP104 T00890017 53007

TAF KBYI
Valid from the 22 at 06:00 until the 23 at 06:00 UTC


220520Z 2206/2306 25011KT P6SM BKN045
FM221200 27011KT P6SM BKN060
FM221800 VRB06KT P6SM SCT070
FM230200 22006KT P6SM FEW050
KZLC FIR / North America



MET'MAP, your aeronautical weather chart ! - Copyright ORBIFLY December 2007 - Disclaimer

ORBIFLY MET'MAP TEAM :

Programming & Development : Alexandra Zaïnal
Concept & original design : Baudouin d'Aumeries
Assistance for programming : Marc-Olivier Méhu
Technical & hardware support : Manuel Goepfert

Contact : metmap@orbifly.com




SOURCES & CREDITS :

   NOAA       Earth
Advisory